Time;durP1;ratioP1;P1;durP2;ratioP2;P2;SDS_P1;SDS_P2;PMS_P1;PMS_P2;Temp;Humidity;BMP_temperature;BMP_pressure;BME280_temperature;BME280_humidity;BME280_pressure;Samples;Min_cycle;Max_cycle;Signal;HPM_P1;HPM_P2
2021/03/05 00:00:58;;;;;;;20.40;6.90;;;29.20;61.50;;;;;;5080829;28;20025;-48
2021/03/05 00:03:25;;;;;;;11.55;7.28;;;29.20;61.40;;;;;;5080959;28;20095;-39
2021/03/05 00:05:53;;;;;;;15.00;7.65;;;29.30;61.40;;;;;;5081460;28;20094;-43
2021/03/05 00:08:20;;;;;;;15.43;7.68;;;29.30;61.30;;;;;;5080721;28;20336;-45
2021/03/05 00:10:47;;;;;;;14.68;8.20;;;29.30;61.10;;;;;;5078796;28;20332;-48
2021/03/05 00:13:14;;;;;;;14.40;7.53;;;29.30;61.30;;;;;;5068080;28;20013;-47
2021/03/05 00:15:45;;;;;;;19.02;7.75;;;29.30;61.10;;;;;;5074442;28;20082;-44
2021/03/05 00:18:14;;;;;;;20.00;7.38;;;29.30;61.10;;;;;;5073213;28;20051;-45
2021/03/05 00:20:45;;;;;;;13.30;7.25;;;29.30;61.40;;;;;;5068094;28;20033;-42
2021/03/05 00:23:13;;;;;;;22.52;9.02;;;29.30;61.70;;;;;;5067011;28;20044;-43
2021/03/05 00:25:40;;;;;;;113.00;18.25;;;29.30;61.40;;;;;;5072297;28;20029;-40
2021/03/05 00:28:07;;;;;;;30.15;10.00;;;29.30;61.50;;;;;;5075399;28;20055;-42
2021/03/05 00:30:35;;;;;;;37.65;10.88;;;29.30;61.70;;;;;;5072533;28;20268;-44
2021/03/05 00:33:05;;;;;;;28.67;9.55;;;29.30;61.70;;;;;;5067065;28;20025;-47
2021/03/05 00:35:32;;;;;;;28.40;8.63;;;29.30;61.80;;;;;;5070895;28;20028;-44
2021/03/05 00:37:59;;;;;;;22.50;7.28;;;29.20;61.70;;;;;;5067231;28;20021;-42
2021/03/05 00:40:26;;;;;;;18.90;7.45;;;29.20;61.60;;;;;;5060667;28;20309;-43
2021/03/05 00:42:53;;;;;;;20.27;7.35;;;29.20;61.60;;;;;;5064554;28;20169;-42
2021/03/05 00:45:23;;;;;;;18.63;7.25;;;29.20;61.70;;;;;;5067624;28;20248;-43
2021/03/05 00:47:50;;;;;;;13.23;6.07;;;29.20;61.60;;;;;;5071428;28;20024;-45
2021/03/05 00:50:19;;;;;;;12.40;6.32;;;29.20;61.80;;;;;;5078892;28;20104;-49
2021/03/05 00:52:48;;;;;;;14.85;6.30;;;29.20;61.50;;;;;;5070584;28;20043;-46
2021/03/05 00:55:14;;;;;;;10.93;6.07;;;29.10;61.70;;;;;;5062572;28;20027;-42
2021/03/05 00:57:41;;;;;;;13.13;5.45;;;29.10;61.40;;;;;;5062467;28;20325;-46
2021/03/05 01:00:14;;;;;;;12.07;6.63;;;29.20;61.40;;;;;;5068519;28;20304;-50
2021/03/05 01:02:41;;;;;;;13.60;5.93;;;29.10;61.20;;;;;;5062855;28;20017;-41
2021/03/05 01:05:08;;;;;;;14.25;6.78;;;29.20;61.40;;;;;;5053536;28;20104;-48
2021/03/05 01:07:35;;;;;;;14.15;5.85;;;29.20;61.90;;;;;;5058137;28;20032;-41
2021/03/05 01:10:03;;;;;;;9.30;6.00;;;29.10;61.10;;;;;;5049788;28;20070;-47
2021/03/05 01:12:30;;;;;;;14.85;5.22;;;29.10;61.20;;;;;;5053585;28;20025;-41
2021/03/05 01:14:57;;;;;;;12.20;5.93;;;29.10;61.00;;;;;;5057676;28;20091;-42
2021/03/05 01:17:23;;;;;;;15.85;6.15;;;29.10;60.90;;;;;;5052153;28;20078;-39
2021/03/05 01:19:51;;;;;;;9.20;5.55;;;29.10;61.10;;;;;;5056749;28;20075;-42
2021/03/05 01:22:24;;;;;;;9.57;6.15;;;29.10;61.20;;;;;;5049178;28;20330;-44
2021/03/05 01:24:50;;;;;;;12.50;5.90;;;29.10;61.10;;;;;;5058899;28;20196;-43
2021/03/05 01:27:17;;;;;;;10.57;6.20;;;29.10;61.30;;;;;;5061359;28;20021;-48
2021/03/05 01:29:44;;;;;;;7.30;5.18;;;29.10;61.40;;;;;;5058662;28;20030;-45
2021/03/05 01:32:10;;;;;;;11.15;4.90;;;29.10;61.40;;;;;;5057078;28;20032;-43
2021/03/05 01:34:37;;;;;;;10.20;4.65;;;29.10;61.80;;;;;;5065713;28;20048;-41
2021/03/05 01:37:04;;;;;;;6.97;5.22;;;29.10;61.80;;;;;;5065810;28;20040;-49
2021/03/05 01:39:33;;;;;;;9.48;5.35;;;29.10;61.80;;;;;;5065939;28;20029;-43
2021/03/05 01:42:00;;;;;;;11.85;5.07;;;29.10;61.90;;;;;;5063042;28;20105;-43
2021/03/05 01:44:28;;;;;;;13.32;4.80;;;29.10;61.90;;;;;;5052368;28;20029;-50
2021/03/05 01:46:54;;;;;;;14.18;4.82;;;29.10;61.50;;;;;;5052092;28;20032;-44
2021/03/05 01:49:22;;;;;;;9.85;4.75;;;29.00;61.10;;;;;;5045228;28;20041;-45
2021/03/05 01:51:48;;;;;;;8.38;5.10;;;29.00;61.60;;;;;;5044600;28;20069;-45
2021/03/05 01:54:17;;;;;;;10.20;5.07;;;29.00;61.60;;;;;;5045748;28;20179;-46
2021/03/05 01:56:54;;;;;;;10.45;4.97;;;29.00;61.70;;;;;;5045461;28;20021;-47
2021/03/05 01:59:31;;;;;;;9.05;4.90;;;29.00;61.40;;;;;;5045416;28;20035;-42
2021/03/05 02:02:18;;;;;;;9.40;4.55;;;29.00;61.70;;;;;;5045409;28;20068;-48
2021/03/05 02:04:45;;;;;;;8.23;5.07;;;29.00;61.80;;;;;;5045760;28;20029;-45
2021/03/05 02:07:11;;;;;;;9.25;4.47;;;29.00;61.60;;;;;;5044248;28;20021;-42
2021/03/05 02:09:38;;;;;;;8.43;4.40;;;29.00;62.00;;;;;;5045366;28;20021;-43
2021/03/05 02:12:05;;;;;;;7.95;4.82;;;29.00;61.40;;;;;;5043925;28;20056;-49
2021/03/05 02:14:33;;;;;;;7.68;4.32;;;29.00;61.70;;;;;;5044935;28;20076;-45
2021/03/05 02:17:11;;;;;;;8.68;4.80;;;29.00;61.50;;;;;;5044185;28;20108;-46
2021/03/05 02:20:11;;;;;;;11.57;4.63;;;29.00;61.30;;;;;;5045469;28;20310;-42
2021/03/05 02:22:53;;;;;;;7.60;4.68;;;28.90;61.30;;;;;;5045258;28;20045;-43
2021/03/05 02:25:38;;;;;;;9.43;5.20;;;28.90;61.20;;;;;;5045343;28;20021;-44
2021/03/05 02:28:20;;;;;;;10.60;4.30;;;28.90;60.80;;;;;;5045213;28;20025;-41
2021/03/05 02:31:12;;;;;;;8.60;4.63;;;28.90;61.10;;;;;;5045479;28;20033;-41
2021/03/05 02:34:02;;;;;;;8.70;4.40;;;29.00;61.50;;;;;;5043615;28;20037;-40
2021/03/05 02:36:38;;;;;;;6.93;4.82;;;28.90;61.20;;;;;;5044024;28;20029;-41
2021/03/05 02:39:13;;;;;;;9.73;5.00;;;28.90;61.00;;;;;;5044793;28;20096;-44
2021/03/05 02:41:46;;;;;;;9.27;4.60;;;28.90;61.00;;;;;;5044716;28;20032;-47
2021/03/05 02:44:18;;;;;;;9.95;4.60;;;28.90;60.90;;;;;;5044686;28;20048;-42
2021/03/05 02:46:45;;;;;;;8.10;4.85;;;28.90;61.20;;;;;;5044666;28;20025;-42
2021/03/05 02:49:19;;;;;;;6.78;4.50;;;28.90;61.30;;;;;;5043295;28;20209;-44
2021/03/05 02:51:48;;;;;;;6.85;4.63;;;28.90;61.30;;;;;;5044680;28;20099;-42
2021/03/05 02:54:17;;;;;;;6.82;4.88;;;28.90;61.10;;;;;;5044675;28;20053;-40
2021/03/05 02:56:46;;;;;;;13.40;9.63;;;28.80;61.00;;;;;;5044308;28;20021;-39
2021/03/05 02:59:15;;;;;;;14.98;5.43;;;28.90;61.00;;;;;;5043441;28;20100;-39
2021/03/05 03:01:52;;;;;;;10.20;5.07;;;28.80;61.00;;;;;;5044484;28;20021;-41
2021/03/05 03:04:20;;;;;;;6.95;4.47;;;28.80;61.00;;;;;;5044298;28;20074;-45
2021/03/05 03:06:49;;;;;;;7.53;4.35;;;28.80;61.00;;;;;;5044381;28;20056;-43
2021/03/05 03:09:17;;;;;;;7.18;4.45;;;28.80;60.80;;;;;;5044305;28;20025;-41
2021/03/05 03:11:44;;;;;;;6.43;4.50;;;28.80;61.00;;;;;;5044104;28;20018;-41
2021/03/05 03:14:12;;;;;;;4.93;4.30;;;28.80;61.00;;;;;;5044330;28;20064;-44
2021/03/05 03:16:42;;;;;;;6.55;4.50;;;28.80;60.60;;;;;;5044333;28;20062;-47
2021/03/05 03:19:12;;;;;;;6.47;4.78;;;28.80;60.90;;;;;;5044378;28;20052;-45
2021/03/05 03:21:40;;;;;;;8.63;4.53;;;28.80;61.10;;;;;;5044192;28;20021;-46
2021/03/05 03:24:08;;;;;;;7.30;4.25;;;28.80;61.00;;;;;;5043912;28;20097;-44
2021/03/05 03:26:39;;;;;;;7.82;4.72;;;28.80;60.60;;;;;;5043414;28;20098;-46
2021/03/05 03:29:06;;;;;;;5.63;4.15;;;28.70;60.80;;;;;;5043940;28;20037;-45
2021/03/05 03:31:33;;;;;;;10.10;4.97;;;28.80;60.60;;;;;;5043975;28;20088;-48
2021/03/05 03:34:00;;;;;;;6.78;4.55;;;28.70;60.20;;;;;;5044158;28;20056;-43
2021/03/05 03:36:28;;;;;;;7.05;4.80;;;28.70;60.20;;;;;;5044082;28;20017;-41
2021/03/05 03:38:56;;;;;;;5.60;4.60;;;28.70;60.20;;;;;;5043828;28;20072;-51
2021/03/05 03:41:23;;;;;;;8.82;4.80;;;28.70;60.20;;;;;;5043947;28;20014;-41
2021/03/05 03:43:49;;;;;;;6.30;4.60;;;28.70;60.50;;;;;;5043907;28;20066;-45
2021/03/05 03:46:16;;;;;;;8.48;4.80;;;28.70;60.40;;;;;;5043813;28;20017;-41
2021/03/05 03:48:52;;;;;;;9.02;4.90;;;28.70;60.30;;;;;;5043677;28;20060;-42
2021/03/05 03:51:23;;;;;;;6.65;5.20;;;28.70;59.80;;;;;;5043813;28;20041;-42
2021/03/05 03:53:51;;;;;;;9.40;5.80;;;28.70;60.20;;;;;;5043904;28;20097;-40
2021/03/05 03:56:19;;;;;;;8.40;5.00;;;28.70;60.20;;;;;;5043737;28;20018;-41
2021/03/05 03:58:50;;;;;;;9.35;5.13;;;28.70;60.30;;;;;;5043709;28;20209;-39
2021/03/05 04:01:17;;;;;;;11.63;5.13;;;28.70;60.10;;;;;;5043793;28;20018;-44
2021/03/05 04:03:49;;;;;;;7.10;5.43;;;28.70;60.30;;;;;;5043740;28;20076;-46
2021/03/05 04:06:20;;;;;;;7.55;5.10;;;28.60;60.30;;;;;;5043769;28;20040;-41
2021/03/05 04:08:49;;;;;;;5.97;4.57;;;28.60;60.30;;;;;;5043548;28;20021;-41
2021/03/05 04:11:16;;;;;;;9.10;5.40;;;28.60;60.30;;;;;;5043623;28;20199;-41
2021/03/05 04:13:44;;;;;;;6.00;4.85;;;28.60;60.40;;;;;;5043408;28;20076;-40
2021/03/05 04:16:11;;;;;;;8.40;5.78;;;28.60;60.30;;;;;;5043620;28;20080;-40
2021/03/05 04:18:40;;;;;;;9.45;6.28;;;28.60;60.50;;;;;;5043529;28;20017;-43
2021/03/05 04:21:34;;;;;;;7.30;5.28;;;28.60;60.60;;;;;;5043365;28;20029;-45
2021/03/05 04:24:01;;;;;;;8.73;5.45;;;28.60;60.70;;;;;;5041812;28;20041;-42
2021/03/05 04:26:28;;;;;;;6.60;5.35;;;28.60;60.90;;;;;;5043545;28;20029;-47
2021/03/05 04:28:55;;;;;;;10.30;5.85;;;28.60;60.90;;;;;;5043695;28;20033;-43
2021/03/05 04:31:21;;;;;;;9.52;5.68;;;28.60;60.90;;;;;;5043411;28;20049;-44
2021/03/05 04:33:48;;;;;;;9.95;5.38;;;28.60;61.20;;;;;;5043276;28;20018;-44
2021/03/05 04:36:15;;;;;;;7.13;4.90;;;28.50;61.20;;;;;;5044570;28;20021;-49
2021/03/05 04:38:42;;;;;;;7.25;4.90;;;28.50;61.20;;;;;;5047154;28;20058;-42
2021/03/05 04:41:08;;;;;;;6.65;5.07;;;28.50;60.90;;;;;;5047030;28;20423;-42
2021/03/05 04:43:35;;;;;;;7.80;4.93;;;28.50;61.30;;;;;;5047130;28;20080;-44
2021/03/05 04:46:01;;;;;;;6.18;4.82;;;28.50;61.50;;;;;;5047211;28;20021;-45
2021/03/05 04:48:28;;;;;;;9.10;5.25;;;28.50;61.40;;;;;;5046910;28;20240;-41
2021/03/05 04:50:55;;;;;;;8.15;4.72;;;28.50;61.60;;;;;;5046824;28;20112;-41
2021/03/05 04:53:21;;;;;;;7.78;5.10;;;28.50;61.50;;;;;;5046968;28;20085;-45
2021/03/05 04:55:48;;;;;;;7.50;4.63;;;28.50;61.80;;;;;;5047433;28;20088;-45
2021/03/05 04:58:15;;;;;;;7.30;4.88;;;28.50;62.00;;;;;;5046776;28;20096;-44
2021/03/05 05:00:41;;;;;;;6.20;4.60;;;28.40;62.40;;;;;;5046735;28;20424;-43
2021/03/05 05:03:08;;;;;;;6.95;4.97;;;28.40;62.70;;;;;;5046739;28;20052;-49
2021/03/05 05:05:36;;;;;;;5.95;4.40;;;28.40;62.90;;;;;;5047317;28;20053;-55
2021/03/05 05:08:04;;;;;;;7.72;4.95;;;28.40;63.30;;;;;;5046769;28;20070;-50
2021/03/05 05:10:31;;;;;;;9.07;4.82;;;28.40;63.50;;;;;;5046822;28;20031;-47
2021/03/05 05:12:58;;;;;;;7.55;4.78;;;28.30;63.80;;;;;;5046610;28;20028;-43
2021/03/05 05:15:24;;;;;;;6.22;4.57;;;28.30;63.80;;;;;;5046869;28;20056;-47
2021/03/05 05:17:51;;;;;;;7.68;4.93;;;28.30;64.00;;;;;;5046265;28;20018;-50
2021/03/05 05:20:18;;;;;;;8.02;5.00;;;28.20;63.90;;;;;;5046784;28;20029;-46
2021/03/05 05:22:44;;;;;;;5.35;4.55;;;28.20;64.10;;;;;;5045290;28;20059;-44
2021/03/05 05:25:11;;;;;;;8.88;4.80;;;28.20;64.10;;;;;;5046729;28;20089;-50
2021/03/05 05:27:38;;;;;;;5.57;4.40;;;28.20;64.00;;;;;;5046386;28;20333;-46
2021/03/05 05:30:05;;;;;;;5.28;4.35;;;28.20;63.90;;;;;;5046861;28;20397;-42
2021/03/05 05:32:32;;;;;;;9.05;4.95;;;28.20;63.80;;;;;;5046284;28;20013;-46
2021/03/05 05:34:59;;;;;;;6.15;4.97;;;28.20;64.00;;;;;;5046748;28;20025;-47
2021/03/05 05:37:25;;;;;;;6.15;4.90;;;28.20;63.90;;;;;;5046196;28;20298;-45
2021/03/05 05:39:52;;;;;;;5.38;4.80;;;28.20;63.40;;;;;;5046174;28;20033;-41
2021/03/05 05:42:19;;;;;;;5.50;4.47;;;28.10;63.50;;;;;;5046030;28;20025;-43
2021/03/05 05:44:49;;;;;;;6.15;4.88;;;28.20;63.40;;;;;;5046243;28;20036;-41
2021/03/05 05:47:16;;;;;;;5.85;4.45;;;28.20;63.50;;;;;;5046264;28;20093;-42
2021/03/05 05:49:44;;;;;;;7.55;4.85;;;28.20;63.20;;;;;;5045906;28;20105;-46
2021/03/05 05:52:20;;;;;;;6.43;4.93;;;28.10;63.30;;;;;;5046168;28;20071;-42
2021/03/05 05:54:49;;;;;;;6.80;5.00;;;28.10;63.60;;;;;;5046010;28;20213;-41
2021/03/05 05:57:16;;;;;;;8.35;5.25;;;28.10;64.30;;;;;;5045958;28;20028;-47
2021/03/05 05:59:43;;;;;;;7.75;5.18;;;28.00;64.00;;;;;;5045829;28;20253;-42
2021/03/05 06:02:11;;;;;;;6.85;4.57;;;28.00;64.00;;;;;;5045588;28;20021;-49
2021/03/05 06:04:38;;;;;;;7.53;5.13;;;28.00;63.40;;;;;;5046048;28;20030;-42
2021/03/05 06:07:06;;;;;;;5.93;4.72;;;28.00;63.70;;;;;;5045898;28;20021;-43
2021/03/05 06:09:32;;;;;;;7.93;4.95;;;28.00;63.70;;;;;;5045716;28;20035;-41
2021/03/05 06:11:59;;;;;;;6.75;4.78;;;28.00;63.50;;;;;;5045791;28;20089;-50
2021/03/05 06:14:26;;;;;;;7.53;5.38;;;28.00;63.80;;;;;;5045714;28;20114;-43
2021/03/05 06:17:00;;;;;;;6.97;4.93;;;28.00;64.00;;;;;;5045436;28;20023;-42
2021/03/05 06:19:29;;;;;;;6.40;4.72;;;28.00;63.90;;;;;;5045528;28;20245;-42
2021/03/05 06:21:56;;;;;;;8.30;5.05;;;28.00;64.60;;;;;;5045489;28;20021;-50
2021/03/05 06:24:23;;;;;;;5.45;4.95;;;28.00;64.40;;;;;;5045445;28;20037;-41
2021/03/05 06:27:01;;;;;;;8.27;4.85;;;28.00;64.10;;;;;;5045397;28;20075;-43
2021/03/05 06:29:47;;;;;;;7.25;5.53;;;27.90;64.90;;;;;;5045150;28;20036;-41
2021/03/05 06:32:16;;;;;;;6.90;4.85;;;27.90;65.50;;;;;;5045398;28;20018;-42
2021/03/05 06:34:51;;;;;;;9.50;5.60;;;27.90;65.40;;;;;;5045556;28;20306;-42
2021/03/05 06:37:20;;;;;;;6.13;4.82;;;27.90;65.80;;;;;;5045138;28;20013;-44
2021/03/05 06:39:57;;;;;;;8.15;5.18;;;27.80;64.90;;;;;;5045254;28;20252;-43
2021/03/05 06:42:24;;;;;;;5.45;4.78;;;27.80;65.00;;;;;;5045095;28;20067;-41
2021/03/05 06:44:51;;;;;;;8.95;5.30;;;27.80;65.30;;;;;;5044955;28;20030;-44
2021/03/05 06:47:22;;;;;;;8.43;5.32;;;27.80;65.10;;;;;;5044752;28;20273;-43
2021/03/05 06:49:50;;;;;;;6.75;5.38;;;27.90;64.80;;;;;;5044705;28;20037;-42
2021/03/05 06:52:18;;;;;;;7.60;5.20;;;27.90;64.90;;;;;;5044829;28;20028;-41
2021/03/05 06:54:46;;;;;;;8.13;4.70;;;27.90;64.70;;;;;;5044766;28;20320;-44
2021/03/05 06:57:15;;;;;;;7.13;5.55;;;27.80;65.00;;;;;;5044642;28;20191;-44
2021/03/05 06:59:44;;;;;;;7.22;5.20;;;27.80;64.60;;;;;;5044275;28;20040;-43
2021/03/05 07:02:14;;;;;;;7.20;4.93;;;27.90;64.50;;;;;;5044607;28;20361;-42
2021/03/05 07:04:49;;;;;;;8.27;5.78;;;27.80;64.70;;;;;;5044824;28;20187;-40
2021/03/05 07:07:21;;;;;;;7.88;5.60;;;27.80;65.10;;;;;;5044738;28;20013;-42
2021/03/05 07:09:52;;;;;;;7.47;4.88;;;27.80;65.40;;;;;;5044712;28;20037;-44
2021/03/05 07:12:26;;;;;;;6.95;5.18;;;27.80;65.20;;;;;;5044492;28;20085;-42
2021/03/05 07:15:06;;;;;;;6.65;5.20;;;27.80;64.80;;;;;;5044544;28;20314;-45
2021/03/05 07:17:34;;;;;;;6.47;5.15;;;27.80;65.10;;;;;;5044712;28;20047;-40
2021/03/05 07:20:00;;;;;;;5.85;4.97;;;27.80;65.30;;;;;;5044664;28;20294;-42
2021/03/05 07:22:30;;;;;;;8.38;4.93;;;27.80;64.30;;;;;;5044630;28;20262;-43
2021/03/05 07:24:58;;;;;;;8.52;5.15;;;27.70;64.40;;;;;;5044816;28;20305;-40
2021/03/05 07:27:37;;;;;;;6.32;5.05;;;27.80;64.90;;;;;;5044315;28;20021;-43
2021/03/05 07:30:10;;;;;;;5.55;4.57;;;27.80;65.10;;;;;;5044683;28;20241;-42
2021/03/05 07:32:46;;;;;;;9.73;4.82;;;27.80;64.90;;;;;;5044669;28;20024;-43
2021/03/05 07:35:22;;;;;;;7.35;5.55;;;27.80;65.60;;;;;;5045145;28;20194;-41
2021/03/05 07:38:00;;;;;;;7.88;5.00;;;27.70;65.50;;;;;;5044321;28;20377;-47
2021/03/05 07:40:31;;;;;;;7.20;5.18;;;27.70;65.40;;;;;;5044889;28;20320;-45
2021/03/05 07:42:59;;;;;;;7.35;5.40;;;27.80;65.20;;;;;;5044287;28;20262;-45
2021/03/05 07:45:26;;;;;;;6.13;5.03;;;27.70;65.10;;;;;;5044917;28;20325;-47
2021/03/05 07:47:55;;;;;;;5.93;4.70;;;27.70;65.10;;;;;;5044557;28;20025;-47
2021/03/05 07:50:26;;;;;;;7.50;5.82;;;27.70;65.90;;;;;;5044138;28;20045;-48
2021/03/05 07:52:58;;;;;;;7.57;5.35;;;27.60;65.80;;;;;;5044267;28;20025;-58
2021/03/05 07:55:42;;;;;;;9.05;5.05;;;27.60;65.70;;;;;;5044579;28;20021;-40
2021/03/05 07:58:09;;;;;;;8.75;5.22;;;27.60;66.30;;;;;;5044136;28;20309;-40
2021/03/05 08:00:52;;;;;;;8.55;5.10;;;27.60;65.30;;;;;;5044535;28;20037;-41
2021/03/05 08:03:23;;;;;;;6.70;4.95;;;27.60;64.90;;;;;;5044448;28;20036;-46
2021/03/05 08:05:50;;;;;;;6.40;4.75;;;27.70;64.80;;;;;;5044743;28;20032;-42
2021/03/05 08:08:18;;;;;;;5.40;4.40;;;27.70;64.80;;;;;;5044067;28;20313;-45
2021/03/05 08:10:51;;;;;;;7.63;4.47;;;27.60;65.60;;;;;;5044866;28;20072;-45
2021/03/05 08:13:44;;;;;;;6.32;5.13;;;27.60;65.40;;;;;;5048556;28;20081;-46
2021/03/05 08:16:26;;;;;;;8.02;5.60;;;27.60;65.20;;;;;;5048491;28;20116;-47
2021/03/05 08:19:05;;;;;;;6.93;5.03;;;27.60;65.30;;;;;;5048104;28;20037;-41
2021/03/05 08:21:50;;;;;;;5.88;4.88;;;27.50;66.10;;;;;;5048257;28;20016;-40
2021/03/05 08:24:23;;;;;;;7.57;5.03;;;27.60;65.70;;;;;;5047581;28;20029;-40
2021/03/05 08:27:08;;;;;;;5.28;4.72;;;27.50;66.20;;;;;;5047738;28;20081;-46
2021/03/05 08:29:53;;;;;;;7.68;4.82;;;27.50;65.70;;;;;;5047865;28;20066;-45
2021/03/05 08:32:35;;;;;;;6.40;4.80;;;27.50;65.70;;;;;;5047926;28;20013;-47
2021/03/05 08:35:39;;;;;;;8.55;5.00;;;27.60;65.70;;;;;;5047950;28;20306;-45
2021/03/05 08:38:13;;;;;;;6.43;5.25;;;27.60;65.60;;;;;;5039621;28;20025;-41
2021/03/05 08:40:49;;;;;;;6.38;4.60;;;27.60;65.80;;;;;;5047633;28;20068;-47
2021/03/05 08:43:17;;;;;;;6.85;5.10;;;27.60;65.40;;;;;;5047465;28;20083;-49
2021/03/05 08:45:46;;;;;;;8.38;5.25;;;27.60;65.10;;;;;;5047729;28;20025;-50
2021/03/05 08:48:25;;;;;;;9.65;5.63;;;27.60;65.20;;;;;;5046428;28;20207;-42
2021/03/05 08:50:52;;;;;;;7.85;4.75;;;27.50;65.40;;;;;;5047324;28;20053;-45
2021/03/05 08:53:19;;;;;;;9.90;4.72;;;27.50;65.10;;;;;;5047488;28;20075;-40
2021/03/05 08:55:45;;;;;;;7.18;5.20;;;27.50;65.20;;;;;;5047669;28;20202;-40
2021/03/05 08:58:16;;;;;;;6.65;4.88;;;27.50;65.10;;;;;;5046891;28;20030;-41
2021/03/05 09:00:43;;;;;;;8.90;5.93;;;27.50;66.10;;;;;;5047427;28;20206;-44
2021/03/05 09:03:18;;;;;;;7.20;4.82;;;27.50;66.50;;;;;;5046658;28;20213;-44
2021/03/05 09:05:47;;;;;;;8.32;5.10;;;27.50;66.20;;;;;;5047158;28;20032;-41
2021/03/05 09:08:17;;;;;;;9.75;4.88;;;27.50;66.30;;;;;;5046546;28;20033;-42
2021/03/05 09:10:50;;;;;;;6.40;4.65;;;27.40;66.30;;;;;;5046966;28;20026;-47
2021/03/05 09:13:22;;;;;;;7.93;4.78;;;27.40;65.70;;;;;;5046472;28;20040;-47
2021/03/05 09:15:51;;;;;;;6.07;4.72;;;27.40;66.00;;;;;;5046505;28;20028;-55
2021/03/05 09:18:24;;;;;;;6.20;4.28;;;27.40;65.60;;;;;;5046589;28;20315;-42
2021/03/05 09:21:02;;;;;;;7.07;4.95;;;27.50;64.80;;;;;;5047065;28;20072;-45
2021/03/05 09:23:33;;;;;;;6.80;4.90;;;27.40;64.70;;;;;;5046372;28;20025;-41
2021/03/05 09:26:05;;;;;;;8.07;4.70;;;27.50;64.90;;;;;;5046879;28;20036;-49
2021/03/05 09:28:42;;;;;;;;;;;27.50;65.00;;;;;;5047086;28;20036;-50
2021/03/05 09:31:10;;;;;;;10.23;5.43;;;27.50;64.50;;;;;;5046828;28;19917;-46
2021/03/05 09:33:39;;;;;;;6.93;4.80;;;27.50;64.00;;;;;;5046388;28;20084;-41
2021/03/05 09:36:14;;;;;;;5.28;4.60;;;27.50;64.20;;;;;;5046787;28;20026;-49
2021/03/05 09:38:43;;;;;;;7.00;4.60;;;27.50;64.60;;;;;;5046530;28;20302;-44
2021/03/05 09:41:17;;;;;;;5.65;4.40;;;27.50;64.40;;;;;;5046829;28;20029;-41
2021/03/05 09:43:46;;;;;;;5.88;4.47;;;27.40;65.40;;;;;;5046032;28;20025;-47
2021/03/05 09:46:18;;;;;;;11.80;4.85;;;27.40;64.80;;;;;;5046116;28;20317;-47
2021/03/05 09:48:45;;;;;;;6.85;5.18;;;27.40;65.00;;;;;;5046152;28;20025;-43
2021/03/05 09:51:12;;;;;;;6.90;4.90;;;27.40;65.40;;;;;;5046188;28;20041;-44
2021/03/05 09:53:50;;;;;;;12.40;5.57;;;27.40;65.20;;;;;;5045866;28;20022;-43
2021/03/05 09:56:16;;;;;;;10.55;5.47;;;27.30;65.90;;;;;;5046225;28;20026;-48
2021/03/05 09:58:55;;;;;;;7.03;4.60;;;27.30;66.30;;;;;;5045583;28;20186;-38
2021/03/05 10:01:21;;;;;;;8.10;5.13;;;27.30;66.60;;;;;;5045618;28;20021;-44
2021/03/05 10:04:06;;;;;;;6.43;4.63;;;27.30;65.50;;;;;;5046374;28;20089;-41
2021/03/05 10:06:33;;;;;;;6.85;4.65;;;27.30;65.20;;;;;;5045885;28;20025;-45
2021/03/05 10:09:06;;;;;;;8.68;5.03;;;27.40;64.70;;;;;;5045689;28;20027;-42
2021/03/05 10:11:40;;;;;;;5.95;4.95;;;27.30;64.60;;;;;;5045845;28;20068;-42
2021/03/05 10:14:10;;;;;;;11.15;5.55;;;27.30;64.70;;;;;;5045784;28;20055;-41
2021/03/05 10:16:38;;;;;;;6.47;4.60;;;27.30;64.40;;;;;;5045381;28;20017;-49
2021/03/05 10:19:14;;;;;;;7.30;4.72;;;27.30;64.50;;;;;;5045980;28;20036;-43
2021/03/05 10:21:43;;;;;;;6.82;4.47;;;27.30;64.30;;;;;;5045542;28;20232;-45
2021/03/05 10:24:15;;;;;;;6.15;4.88;;;27.30;64.20;;;;;;5045309;28;20303;-43
2021/03/05 10:27:16;;;;;;;8.75;4.50;;;27.40;64.10;;;;;;5045400;28;20028;-41
2021/03/05 10:29:48;;;;;;;5.35;4.47;;;27.30;64.10;;;;;;5045467;28;20029;-46
2021/03/05 10:32:24;;;;;;;7.07;4.65;;;27.40;63.80;;;;;;5045544;28;20053;-43
2021/03/05 10:34:56;;;;;;;10.15;5.35;;;27.30;63.50;;;;;;5044668;28;20083;-52
2021/03/05 10:37:23;;;;;;;7.55;5.30;;;27.40;63.50;;;;;;5045263;28;20022;-44
2021/03/05 10:39:51;;;;;;;14.07;4.78;;;27.40;63.60;;;;;;5045205;28;20092;-50
2021/03/05 10:42:20;;;;;;;12.77;5.38;;;27.40;64.80;;;;;;5045119;28;20342;-45
2021/03/05 10:44:48;;;;;;;7.00;4.80;;;27.40;64.60;;;;;;5044878;28;20275;-44
2021/03/05 10:47:17;;;;;;;8.95;5.00;;;27.40;64.10;;;;;;5044913;28;20033;-48
2021/03/05 10:49:46;;;;;;;6.80;4.30;;;27.30;64.20;;;;;;5044966;28;20253;-44
2021/03/05 10:52:15;;;;;;;7.15;4.50;;;27.30;64.10;;;;;;5045180;28;20025;-46
2021/03/05 10:54:44;;;;;;;7.38;4.97;;;27.30;65.10;;;;;;5045229;28;20071;-45
2021/03/05 10:57:12;;;;;;;7.78;4.50;;;27.20;65.00;;;;;;5045108;28;20025;-46
2021/03/05 10:59:40;;;;;;;8.13;4.63;;;27.20;65.30;;;;;;5045010;28;20052;-42
2021/03/05 11:02:07;;;;;;;10.45;5.15;;;27.10;65.40;;;;;;5044840;28;20025;-43
2021/03/05 11:04:34;;;;;;;11.50;5.57;;;27.10;66.00;;;;;;5044829;28;20021;-42
2021/03/05 11:07:04;;;;;;;22.35;5.40;;;27.10;67.20;;;;;;5044930;28;20056;-41
2021/03/05 11:09:30;;;;;;;12.13;5.00;;;27.00;67.60;;;;;;5044721;28;20364;-46
2021/03/05 11:11:59;;;;;;;10.27;5.30;;;27.00;67.00;;;;;;5044759;28;20088;-45
2021/03/05 11:14:28;;;;;;;10.80;6.35;;;26.90;67.70;;;;;;5044808;28;20021;-41
2021/03/05 11:16:55;;;;;;;13.27;5.93;;;26.90;68.20;;;;;;5044457;28;20337;-43
2021/03/05 11:19:23;;;;;;;10.45;6.00;;;26.90;68.40;;;;;;5044546;28;20029;-43
2021/03/05 11:21:51;;;;;;;130.55;18.52;;;26.90;68.40;;;;;;5044227;28;20036;-45
2021/03/05 11:24:18;;;;;;;11.77;5.95;;;26.90;67.80;;;;;;5044380;28;20033;-43
2021/03/05 11:26:45;;;;;;;16.50;5.78;;;26.90;68.80;;;;;;5044276;28;20063;-50
2021/03/05 11:29:13;;;;;;;13.68;6.03;;;26.90;69.40;;;;;;5044240;28;20029;-45
2021/03/05 11:31:40;;;;;;;7.72;5.20;;;26.90;69.80;;;;;;5044182;28;20080;-44
2021/03/05 11:34:06;;;;;;;6.78;5.35;;;26.90;69.10;;;;;;5044360;28;20030;-43
2021/03/05 11:36:33;;;;;;;14.38;5.30;;;27.00;69.70;;;;;;5044091;28;20017;-50
2021/03/05 11:39:00;;;;;;;14.07;5.72;;;27.00;69.20;;;;;;5044087;28;20268;-43
2021/03/05 11:41:27;;;;;;;16.25;6.13;;;27.00;69.00;;;;;;5043953;28;20068;-49
2021/03/05 11:43:56;;;;;;;13.93;6.38;;;27.10;69.30;;;;;;5043879;28;20033;-46
2021/03/05 11:46:23;;;;;;;17.92;7.75;;;27.10;69.20;;;;;;5043561;28;20055;-46
2021/03/05 11:48:50;;;;;;;19.50;9.27;;;27.10;69.60;;;;;;5043795;28;20021;-44
2021/03/05 11:51:18;;;;;;;19.25;9.15;;;27.20;69.30;;;;;;5043763;28;20084;-38
2021/03/05 11:53:45;;;;;;;26.70;9.95;;;27.30;69.30;;;;;;5043531;28;20282;-42
2021/03/05 11:56:12;;;;;;;20.45;9.68;;;27.40;68.20;;;;;;5043810;28;20083;-40
2021/03/05 11:58:39;;;;;;;22.85;10.23;;;27.40;68.60;;;;;;5043706;28;20040;-41
2021/03/05 12:01:06;;;;;;;21.77;9.68;;;27.40;68.60;;;;;;5043775;28;20048;-42
2021/03/05 12:03:32;;;;;;;19.08;10.00;;;27.40;69.10;;;;;;5043443;28;20029;-50
2021/03/05 12:06:00;;;;;;;22.92;9.88;;;27.50;69.30;;;;;;5043241;28;20037;-42
2021/03/05 12:08:27;;;;;;;21.70;9.13;;;27.50;67.90;;;;;;5043232;28;20013;-44
2021/03/05 12:10:54;;;;;;;34.63;9.88;;;27.50;67.70;;;;;;5043901;28;20033;-45
2021/03/05 12:13:20;;;;;;;37.97;14.68;;;27.50;68.20;;;;;;5043490;28;20248;-40
2021/03/05 12:15:47;;;;;;;40.72;14.13;;;27.50;68.80;;;;;;5043977;28;20175;-40
2021/03/05 12:18:14;;;;;;;21.45;10.23;;;27.60;68.30;;;;;;5043683;28;20024;-39
2021/03/05 12:20:40;;;;;;;18.52;9.10;;;27.60;70.00;;;;;;5043882;28;20080;-40
2021/03/05 12:23:07;;;;;;;23.48;11.82;;;27.60;68.90;;;;;;5043641;28;20021;-48
2021/03/05 12:25:35;;;;;;;20.65;10.55;;;27.50;68.90;;;;;;5044052;28;20087;-43
2021/03/05 12:28:01;;;;;;;19.58;11.10;;;27.50;67.40;;;;;;5043591;28;20067;-47
2021/03/05 12:30:28;;;;;;;17.05;8.35;;;27.60;68.50;;;;;;5043302;28;20329;-42
2021/03/05 12:32:55;;;;;;;17.25;8.68;;;27.60;68.00;;;;;;5043523;28;20225;-43
2021/03/05 12:35:22;;;;;;;14.07;7.40;;;27.60;67.60;;;;;;5044061;28;20049;-41
2021/03/05 12:37:49;;;;;;;23.35;8.82;;;27.60;68.50;;;;;;5043285;28;20033;-44
2021/03/05 12:40:16;;;;;;;14.50;7.65;;;27.60;68.60;;;;;;5043847;28;20029;-44
2021/03/05 12:42:43;;;;;;;16.15;6.68;;;27.70;68.50;;;;;;5043422;28;20028;-41
2021/03/05 12:45:12;;;;;;;23.30;8.38;;;27.70;68.70;;;;;;5043375;28;20029;-42
2021/03/05 12:47:39;;;;;;;22.15;8.85;;;27.70;69.10;;;;;;5043295;28;20037;-42
2021/03/05 12:50:08;;;;;;;24.75;8.38;;;27.70;68.50;;;;;;5043144;28;20042;-45
2021/03/05 12:52:35;;;;;;;16.60;7.68;;;27.80;68.20;;;;;;5043181;28;20041;-48
2021/03/05 12:55:02;;;;;;;19.05;7.28;;;27.80;67.60;;;;;;5043476;28;20029;-43
2021/03/05 12:57:29;;;;;;;19.10;7.07;;;27.90;67.40;;;;;;5044791;28;20310;-43